createdAt,value
2022-09-30T00:04:38.748Z,7.95
2022-09-30T00:09:40.896Z,6.30
2022-09-30T00:14:42.849Z,6.60
2022-09-30T00:19:44.534Z,5.25
2022-09-30T00:24:46.746Z,6.53
2022-09-30T00:29:49.048Z,5.18
2022-09-30T00:34:51.143Z,4.82
2022-09-30T00:39:52.776Z,6.25
2022-09-30T00:45:06.737Z,4.38
2022-09-30T00:50:34.888Z,5.60
2022-09-30T00:56:00.945Z,4.78
2022-09-30T01:01:03.711Z,3.92
2022-09-30T01:06:05.868Z,4.57
2022-09-30T01:11:08.480Z,4.32
2022-09-30T01:16:37.319Z,3.65
2022-09-30T01:21:45.337Z,4.13
2022-09-30T01:27:21.666Z,3.65
2022-09-30T01:32:37.999Z,3.90
2022-09-30T01:37:52.999Z,5.88
2022-09-30T01:43:14.362Z,6.45
2022-09-30T01:48:26.087Z,5.73
2022-09-30T01:53:35.431Z,4.57
2022-09-30T01:58:37.656Z,4.50
2022-09-30T02:03:47.259Z,5.25
2022-09-30T02:08:57.712Z,4.63
2022-09-30T02:14:23.600Z,6.03
2022-09-30T02:19:45.444Z,4.55
2022-09-30T02:24:52.935Z,4.90
2022-09-30T02:29:59.334Z,3.92
2022-09-30T02:35:06.504Z,4.70
2022-09-30T02:40:15.873Z,5.30
2022-09-30T02:45:22.009Z,4.53
2022-09-30T02:50:51.828Z,4.68
2022-09-30T02:55:59.489Z,4.03
2022-09-30T03:01:01.228Z,4.43
2022-09-30T03:06:03.639Z,4.43
2022-09-30T03:11:06.660Z,3.70
2022-09-30T03:16:36.307Z,3.60
2022-09-30T03:21:45.234Z,4.15
2022-09-30T03:27:01.658Z,4.47
2022-09-30T03:32:22.867Z,4.18
2022-09-30T03:37:27.885Z,3.83
2022-09-30T03:42:43.977Z,3.53
2022-09-30T03:47:50.167Z,4.15
2022-09-30T03:52:52.339Z,4.32
2022-09-30T03:57:54.505Z,4.13
2022-09-30T04:02:57.978Z,3.90
2022-09-30T04:08:00.158Z,4.68
2022-09-30T04:13:02.519Z,5.07
2022-09-30T04:18:05.147Z,4.13
2022-09-30T04:23:06.813Z,5.00
2022-09-30T04:28:08.924Z,4.88
2022-09-30T04:33:12.750Z,5.40
2022-09-30T04:38:14.485Z,3.95
2022-09-30T04:43:19.010Z,4.25
2022-09-30T04:48:22.651Z,4.53
2022-09-30T04:53:24.469Z,5.22
2022-09-30T04:58:26.813Z,7.68
2022-09-30T05:03:28.925Z,5.18
2022-09-30T05:08:33.151Z,6.00
2022-09-30T05:13:38.365Z,4.47
2022-09-30T05:18:42.573Z,5.43
2022-09-30T05:23:45.112Z,5.85
2022-09-30T05:28:46.803Z,5.10
2022-09-30T05:33:48.574Z,4.47
2022-09-30T05:38:54.221Z,5.50
2022-09-30T05:43:57.144Z,4.53
2022-09-30T05:48:58.872Z,4.88
2022-09-30T05:54:01.150Z,3.33
2022-09-30T05:59:36.435Z,3.90
2022-09-30T06:04:39.414Z,4.20
2022-09-30T06:09:41.670Z,4.60
2022-09-30T06:14:43.394Z,3.45
2022-09-30T06:19:45.502Z,4.43
2022-09-30T06:24:50.387Z,4.68
2022-09-30T06:29:54.900Z,4.07
2022-09-30T06:34:56.615Z,4.90
2022-09-30T06:39:58.313Z,3.83
2022-09-30T06:45:00.357Z,4.85
2022-09-30T06:50:03.097Z,5.13
2022-09-30T06:55:05.153Z,4.88
2022-09-30T07:00:07.775Z,4.82
2022-09-30T07:05:10.276Z,5.72
2022-09-30T07:10:11.959Z,7.22
2022-09-30T07:15:14.112Z,5.75
2022-09-30T07:20:16.245Z,3.80
2022-09-30T07:25:18.685Z,4.22
2022-09-30T07:30:27.321Z,6.25
2022-09-30T07:35:29.746Z,4.85
2022-09-30T07:40:32.220Z,5.60
2022-09-30T07:45:37.055Z,6.30
2022-09-30T07:50:42.267Z,5.85
2022-09-30T07:55:43.936Z,7.63
2022-09-30T08:00:50.284Z,7.50
2022-09-30T08:05:51.954Z,6.63
2022-09-30T08:10:53.665Z,7.13
2022-09-30T08:15:55.419Z,8.20
2022-09-30T08:20:57.647Z,7.60
2022-09-30T08:26:10.907Z,6.47
2022-09-30T08:31:18.327Z,6.88
2022-09-30T08:36:22.780Z,6.32
2022-09-30T08:41:51.557Z,6.70
2022-09-30T08:47:14.914Z,7.20
2022-09-30T08:52:48.231Z,5.65
2022-09-30T08:57:52.862Z,5.93
2022-09-30T09:02:55.733Z,5.00
2022-09-30T09:08:50.068Z,5.45
2022-09-30T09:13:58.672Z,4.75
2022-09-30T09:19:24.533Z,5.30
2022-09-30T09:24:30.226Z,5.45
2022-09-30T09:29:34.826Z,4.30
2022-09-30T09:34:39.574Z,3.58
2022-09-30T09:40:04.414Z,3.40
2022-09-30T09:45:23.604Z,3.67
2022-09-30T09:50:41.942Z,3.28
2022-09-30T09:55:44.327Z,2.70
2022-09-30T10:00:46.052Z,2.00
2022-09-30T10:05:59.749Z,1.63
2022-09-30T10:11:05.067Z,1.52
2022-09-30T10:16:07.128Z,1.70
2022-09-30T10:21:23.793Z,1.40
2022-09-30T10:31:41.555Z,1.40
2022-09-30T10:36:44.590Z,1.20
2022-09-30T10:42:10.850Z,1.40
2022-09-30T10:47:23.318Z,1.52
2022-09-30T10:52:28.724Z,1.00
2022-09-30T10:57:37.957Z,0.98
2022-09-30T11:02:48.271Z,0.90
2022-09-30T11:08:13.395Z,1.00
2022-09-30T11:13:28.741Z,1.33
2022-09-30T11:18:38.089Z,0.82
2022-09-30T11:24:02.497Z,0.77
2022-09-30T11:29:38.034Z,0.80
2022-09-30T11:35:07.161Z,0.88
2022-09-30T11:40:34.545Z,0.57
2022-09-30T11:46:18.073Z,1.02
2022-09-30T11:51:25.377Z,0.75
2022-09-30T11:56:40.705Z,0.90
2022-09-30T12:01:46.318Z,0.70
2022-09-30T12:06:58.266Z,1.48
2022-09-30T12:12:08.600Z,0.90
2022-09-30T12:17:31.287Z,0.98
2022-09-30T12:22:40.106Z,0.90
2022-09-30T12:27:49.073Z,0.75
2022-09-30T12:33:22.816Z,0.88
2022-09-30T12:38:33.758Z,1.05
2022-09-30T12:44:00.556Z,0.50
2022-09-30T12:49:09.699Z,0.65
2022-09-30T12:54:17.491Z,0.73
2022-09-30T12:59:26.707Z,1.02
2022-09-30T13:04:35.891Z,1.00
2022-09-30T13:10:22.086Z,0.50
2022-09-30T13:15:29.652Z,1.00
2022-09-30T13:20:56.471Z,0.50
2022-09-30T13:25:58.181Z,0.60
2022-09-30T13:31:26.157Z,0.70
2022-09-30T13:36:40.687Z,0.60
2022-09-30T13:41:44.682Z,0.70
2022-09-30T13:46:51.217Z,0.60
2022-09-30T13:51:55.075Z,1.50
2022-09-30T13:56:57.008Z,1.80
2022-09-30T14:02:07.611Z,1.58
2022-09-30T14:07:27.791Z,1.20
2022-09-30T14:12:44.914Z,0.75
2022-09-30T14:17:52.443Z,1.10
2022-09-30T14:22:54.221Z,1.00
2022-09-30T14:28:04.302Z,1.58
2022-09-30T14:33:24.288Z,0.80
2022-09-30T14:38:29.522Z,0.60
2022-09-30T14:43:38.898Z,0.85
2022-09-30T14:48:45.280Z,0.90
2022-09-30T14:53:58.148Z,2.83
2022-09-30T14:59:01.028Z,3.97
2022-09-30T15:04:12.360Z,2.13
2022-09-30T15:09:25.979Z,1.65
2022-09-30T15:14:27.690Z,2.00
2022-09-30T15:19:43.358Z,1.90
2022-09-30T15:24:47.617Z,1.00
2022-09-30T15:30:05.093Z,1.02
2022-09-30T15:35:11.928Z,2.78
2022-09-30T15:40:34.290Z,2.17
2022-09-30T15:45:43.277Z,1.80
2022-09-30T15:50:50.377Z,2.05
2022-09-30T15:55:57.062Z,2.72
2022-09-30T16:01:16.171Z,1.80
2022-09-30T16:06:38.202Z,2.05
2022-09-30T16:11:43.366Z,7.28
2022-09-30T16:16:56.228Z,4.45
2022-09-30T16:21:59.400Z,3.30
2022-09-30T16:27:29.191Z,14.27
2022-09-30T16:32:36.809Z,3.38
2022-09-30T16:37:42.856Z,14.00
2022-09-30T16:42:44.543Z,12.60
2022-09-30T16:47:46.274Z,10.30
2022-09-30T16:52:48.018Z,9.68
2022-09-30T16:57:50.284Z,2.35
2022-09-30T17:02:52.352Z,2.70
2022-09-30T17:07:54.457Z,6.32
2022-09-30T17:13:00.047Z,10.13
2022-09-30T17:18:07.235Z,39.00
2022-09-30T17:23:08.952Z,28.95
2022-09-30T17:28:11.906Z,24.50
2022-09-30T17:33:14.263Z,6.25
2022-09-30T17:38:15.902Z,4.72
2022-09-30T17:43:17.632Z,12.57
2022-09-30T17:48:19.435Z,22.75
2022-09-30T17:53:21.537Z,6.50
2022-09-30T17:58:23.392Z,10.77
2022-09-30T18:03:26.334Z,7.78
2022-09-30T18:08:28.449Z,8.65
2022-09-30T18:13:30.290Z,20.20
2022-09-30T18:18:34.205Z,10.95
2022-09-30T18:23:35.905Z,18.83
2022-09-30T18:28:37.639Z,7.50
2022-09-30T18:33:39.760Z,6.13
2022-09-30T18:38:41.464Z,7.40
2022-09-30T18:43:45.207Z,8.75
2022-09-30T18:48:50.003Z,18.20
2022-09-30T18:53:57.510Z,20.20
2022-09-30T18:59:04.515Z,9.80
2022-09-30T19:04:06.771Z,6.47
2022-09-30T19:09:09.038Z,8.93
2022-09-30T19:14:14.404Z,6.88
2022-09-30T19:19:18.339Z,7.30
2022-09-30T19:24:25.292Z,8.43
2022-09-30T19:29:29.488Z,9.45
2022-09-30T19:34:32.678Z,6.18
2022-09-30T19:39:44.085Z,6.72
2022-09-30T19:44:47.797Z,5.60
2022-09-30T19:49:49.468Z,7.40
2022-09-30T19:54:51.817Z,20.63
2022-09-30T19:59:53.987Z,10.85
2022-09-30T20:04:56.047Z,8.77
2022-09-30T20:09:58.228Z,15.50
2022-09-30T20:15:18.866Z,14.10
2022-09-30T20:20:36.254Z,12.20
2022-09-30T20:25:38.271Z,7.05
2022-09-30T20:30:45.347Z,11.82
2022-09-30T20:35:48.209Z,9.40
2022-09-30T20:40:57.079Z,11.82
2022-09-30T20:46:05.425Z,5.82
2022-09-30T20:51:19.868Z,7.32
2022-09-30T20:56:22.933Z,6.97
2022-09-30T21:01:25.177Z,7.75
2022-09-30T21:06:28.593Z,7.00
2022-09-30T21:11:30.767Z,4.60
2022-09-30T21:16:33.151Z,6.50
2022-09-30T21:21:35.778Z,7.53
2022-09-30T21:26:38.114Z,6.05
2022-09-30T21:31:40.328Z,5.70
2022-09-30T21:36:42.074Z,4.63
2022-09-30T21:41:44.740Z,3.67
2022-09-30T21:46:48.715Z,5.30
2022-09-30T21:51:52.920Z,4.60
2022-09-30T21:56:54.663Z,6.40
2022-09-30T22:01:56.593Z,8.13
2022-09-30T22:06:58.257Z,8.15
2022-09-30T22:12:08.662Z,5.18
2022-09-30T22:17:10.753Z,4.28
2022-09-30T22:22:12.450Z,6.70
2022-09-30T22:27:14.632Z,4.78
2022-09-30T22:32:16.711Z,6.72
2022-09-30T22:37:36.954Z,6.00
2022-09-30T22:42:39.046Z,4.25
2022-09-30T22:47:41.572Z,4.53
2022-09-30T22:52:43.637Z,5.75
2022-09-30T22:57:45.282Z,6.53
2022-09-30T23:02:48.293Z,5.68
2022-09-30T23:07:52.991Z,5.97
2022-09-30T23:12:55.079Z,7.07
2022-09-30T23:17:56.683Z,6.07
2022-09-30T23:22:58.751Z,4.70
2022-09-30T23:28:00.937Z,6.10
2022-09-30T23:33:03.031Z,6.70
2022-09-30T23:38:05.832Z,6.32
2022-09-30T23:43:07.945Z,7.40
2022-09-30T23:48:10.041Z,5.45
2022-09-30T23:53:12.103Z,4.65
2022-09-30T23:58:15.070Z,5.53
